sensor_id;sensor_type;location;lat;lon;timestamp;temperature;humidity
21502;DHT22;27639;48.674;9.242;2023-07-29T00:00:46;21.80;68.60
21502;DHT22;27639;48.674;9.242;2023-07-29T00:03:12;21.70;68.70
21502;DHT22;27639;48.674;9.242;2023-07-29T00:05:38;21.70;69.00
21502;DHT22;27639;48.674;9.242;2023-07-29T00:08:05;21.70;69.00
21502;DHT22;27639;48.674;9.242;2023-07-29T00:10:31;21.70;69.10
21502;DHT22;27639;48.674;9.242;2023-07-29T00:12:57;21.70;69.20
21502;DHT22;27639;48.674;9.242;2023-07-29T00:15:23;21.70;69.10
21502;DHT22;27639;48.674;9.242;2023-07-29T00:17:48;21.80;69.10
21502;DHT22;27639;48.674;9.242;2023-07-29T00:20:14;21.80;69.10
21502;DHT22;27639;48.674;9.242;2023-07-29T00:22:40;21.80;69.10
21502;DHT22;27639;48.674;9.242;2023-07-29T00:25:06;21.80;68.90
21502;DHT22;27639;48.674;9.242;2023-07-29T00:27:32;21.80;69.10
21502;DHT22;27639;48.674;9.242;2023-07-29T00:29:58;21.80;68.80
21502;DHT22;27639;48.674;9.242;2023-07-29T00:32:23;21.80;68.60
21502;DHT22;27639;48.674;9.242;2023-07-29T00:34:49;21.80;68.70
21502;DHT22;27639;48.674;9.242;2023-07-29T00:37:14;21.70;68.90
21502;DHT22;27639;48.674;9.242;2023-07-29T00:39:40;21.70;69.00
21502;DHT22;27639;48.674;9.242;2023-07-29T00:42:06;21.70;69.00
21502;DHT22;27639;48.674;9.242;2023-07-29T00:44:32;21.70;69.10
21502;DHT22;27639;48.674;9.242;2023-07-29T00:46:58;21.70;69.10
21502;DHT22;27639;48.674;9.242;2023-07-29T00:49:26;21.70;69.00
21502;DHT22;27639;48.674;9.242;2023-07-29T00:51:51;21.70;69.00
21502;DHT22;27639;48.674;9.242;2023-07-29T00:54:17;21.70;69.10
21502;DHT22;27639;48.674;9.242;2023-07-29T00:56:42;21.70;69.00
21502;DHT22;27639;48.674;9.242;2023-07-29T00:59:08;21.70;69.00
21502;DHT22;27639;48.674;9.242;2023-07-29T01:01:34;21.60;68.90
21502;DHT22;27639;48.674;9.242;2023-07-29T01:04:00;21.60;69.10
21502;DHT22;27639;48.674;9.242;2023-07-29T01:06:56;21.60;69.40
21502;DHT22;27639;48.674;9.242;2023-07-29T01:12:20;21.50;69.40
21502;DHT22;27639;48.674;9.242;2023-07-29T01:15:01;21.50;69.40
21502;DHT22;27639;48.674;9.242;2023-07-29T01:17:42;21.50;69.50
21502;DHT22;27639;48.674;9.242;2023-07-29T01:20:11;21.60;69.50
21502;DHT22;27639;48.674;9.242;2023-07-29T01:22:38;21.60;69.30
21502;DHT22;27639;48.674;9.242;2023-07-29T01:25:05;21.70;69.10
21502;DHT22;27639;48.674;9.242;2023-07-29T01:27:31;21.70;69.00
21502;DHT22;27639;48.674;9.242;2023-07-29T01:29:57;21.70;69.00
21502;DHT22;27639;48.674;9.242;2023-07-29T01:32:54;21.70;69.10
21502;DHT22;27639;48.674;9.242;2023-07-29T01:35:29;21.70;69.00
21502;DHT22;27639;48.674;9.242;2023-07-29T01:38:08;21.60;68.90
21502;DHT22;27639;48.674;9.242;2023-07-29T01:40:35;21.60;69.40
21502;DHT22;27639;48.674;9.242;2023-07-29T01:43:01;21.50;69.70
21502;DHT22;27639;48.674;9.242;2023-07-29T01:45:26;21.50;70.00
21502;DHT22;27639;48.674;9.242;2023-07-29T01:47:52;21.40;70.10
21502;DHT22;27639;48.674;9.242;2023-07-29T01:50:18;21.40;70.80
21502;DHT22;27639;48.674;9.242;2023-07-29T01:52:43;21.50;70.20
21502;DHT22;27639;48.674;9.242;2023-07-29T01:55:09;21.50;70.20
21502;DHT22;27639;48.674;9.242;2023-07-29T01:57:34;21.50;70.10
21502;DHT22;27639;48.674;9.242;2023-07-29T02:00:00;21.60;69.90
21502;DHT22;27639;48.674;9.242;2023-07-29T02:02:26;21.60;69.70
21502;DHT22;27639;48.674;9.242;2023-07-29T02:04:51;21.60;69.70
21502;DHT22;27639;48.674;9.242;2023-07-29T02:07:20;21.50;69.60
21502;DHT22;27639;48.674;9.242;2023-07-29T02:09:46;21.50;69.90
21502;DHT22;27639;48.674;9.242;2023-07-29T02:12:11;21.40;70.10
21502;DHT22;27639;48.674;9.242;2023-07-29T02:14:37;21.50;70.40
21502;DHT22;27639;48.674;9.242;2023-07-29T02:17:02;21.40;70.40
21502;DHT22;27639;48.674;9.242;2023-07-29T02:19:28;21.50;70.40
21502;DHT22;27639;48.674;9.242;2023-07-29T02:21:53;21.50;70.30
21502;DHT22;27639;48.674;9.242;2023-07-29T02:24:19;21.40;70.20
21502;DHT22;27639;48.674;9.242;2023-07-29T02:26:45;21.40;70.10
21502;DHT22;27639;48.674;9.242;2023-07-29T02:29:10;21.50;70.10
21502;DHT22;27639;48.674;9.242;2023-07-29T02:31:36;21.40;70.10
21502;DHT22;27639;48.674;9.242;2023-07-29T02:34:03;21.50;70.10
21502;DHT22;27639;48.674;9.242;2023-07-29T02:36:28;21.50;70.00
21502;DHT22;27639;48.674;9.242;2023-07-29T02:38:54;21.50;70.00
21502;DHT22;27639;48.674;9.242;2023-07-29T02:41:20;21.50;70.00
21502;DHT22;27639;48.674;9.242;2023-07-29T02:43:49;21.50;70.10
21502;DHT22;27639;48.674;9.242;2023-07-29T02:46:15;21.50;70.00
21502;DHT22;27639;48.674;9.242;2023-07-29T02:48:42;21.60;70.00
21502;DHT22;27639;48.674;9.242;2023-07-29T02:51:07;21.50;69.80
21502;DHT22;27639;48.674;9.242;2023-07-29T02:53:34;21.50;70.00
21502;DHT22;27639;48.674;9.242;2023-07-29T02:56:02;21.50;69.90
21502;DHT22;27639;48.674;9.242;2023-07-29T02:58:28;21.50;69.90
21502;DHT22;27639;48.674;9.242;2023-07-29T03:01:03;21.50;70.00
21502;DHT22;27639;48.674;9.242;2023-07-29T03:03:29;21.50;70.00
21502;DHT22;27639;48.674;9.242;2023-07-29T03:06:02;21.40;70.00
21502;DHT22;27639;48.674;9.242;2023-07-29T03:08:28;21.50;70.00
21502;DHT22;27639;48.674;9.242;2023-07-29T03:10:54;21.50;70.10
21502;DHT22;27639;48.674;9.242;2023-07-29T03:13:20;21.50;70.10
21502;DHT22;27639;48.674;9.242;2023-07-29T03:15:45;21.50;69.90
21502;DHT22;27639;48.674;9.242;2023-07-29T03:18:11;21.50;69.70
21502;DHT22;27639;48.674;9.242;2023-07-29T03:20:37;21.50;69.90
21502;DHT22;27639;48.674;9.242;2023-07-29T03:23:02;21.50;71.00
21502;DHT22;27639;48.674;9.242;2023-07-29T03:25:28;21.50;70.40
21502;DHT22;27639;48.674;9.242;2023-07-29T03:27:54;21.50;70.40
21502;DHT22;27639;48.674;9.242;2023-07-29T03:30:21;21.40;70.30
21502;DHT22;27639;48.674;9.242;2023-07-29T03:32:47;21.40;70.60
21502;DHT22;27639;48.674;9.242;2023-07-29T03:35:13;21.40;70.60
21502;DHT22;27639;48.674;9.242;2023-07-29T03:37:39;21.40;70.60
21502;DHT22;27639;48.674;9.242;2023-07-29T03:40:05;21.40;70.50
21502;DHT22;27639;48.674;9.242;2023-07-29T03:42:31;21.40;70.50
21502;DHT22;27639;48.674;9.242;2023-07-29T03:44:57;21.40;70.30
21502;DHT22;27639;48.674;9.242;2023-07-29T03:47:22;21.40;70.30
21502;DHT22;27639;48.674;9.242;2023-07-29T03:49:48;21.40;70.50
21502;DHT22;27639;48.674;9.242;2023-07-29T03:52:14;21.40;70.40
21502;DHT22;27639;48.674;9.242;2023-07-29T03:54:39;21.40;70.40
21502;DHT22;27639;48.674;9.242;2023-07-29T03:57:05;21.50;70.40
21502;DHT22;27639;48.674;9.242;2023-07-29T03:59:31;21.50;70.40
21502;DHT22;27639;48.674;9.242;2023-07-29T04:01:56;21.50;70.30
21502;DHT22;27639;48.674;9.242;2023-07-29T04:04:22;21.60;70.20
21502;DHT22;27639;48.674;9.242;2023-07-29T04:06:48;21.60;70.10
21502;DHT22;27639;48.674;9.242;2023-07-29T04:09:13;21.70;70.00
21502;DHT22;27639;48.674;9.242;2023-07-29T04:11:39;21.70;69.90
21502;DHT22;27639;48.674;9.242;2023-07-29T04:14:04;21.70;69.80
21502;DHT22;27639;48.674;9.242;2023-07-29T04:16:30;21.70;69.60
21502;DHT22;27639;48.674;9.242;2023-07-29T04:18:56;21.70;70.20
21502;DHT22;27639;48.674;9.242;2023-07-29T04:21:21;21.80;69.10
21502;DHT22;27639;48.674;9.242;2023-07-29T04:23:47;21.70;69.00
21502;DHT22;27639;48.674;9.242;2023-07-29T04:26:13;21.70;69.10
21502;DHT22;27639;48.674;9.242;2023-07-29T04:28:38;21.70;69.10
21502;DHT22;27639;48.674;9.242;2023-07-29T04:31:04;21.60;69.40
21502;DHT22;27639;48.674;9.242;2023-07-29T04:33:30;21.60;69.70
21502;DHT22;27639;48.674;9.242;2023-07-29T04:35:56;21.60;69.90
21502;DHT22;27639;48.674;9.242;2023-07-29T04:38:22;21.60;69.90
21502;DHT22;27639;48.674;9.242;2023-07-29T04:40:50;21.60;69.90
21502;DHT22;27639;48.674;9.242;2023-07-29T04:43:16;21.60;70.10
21502;DHT22;27639;48.674;9.242;2023-07-29T04:45:44;21.60;70.20
21502;DHT22;27639;48.674;9.242;2023-07-29T04:48:10;21.60;70.20
21502;DHT22;27639;48.674;9.242;2023-07-29T04:50:36;21.60;70.60
21502;DHT22;27639;48.674;9.242;2023-07-29T04:53:01;21.50;70.90
21502;DHT22;27639;48.674;9.242;2023-07-29T04:55:27;21.50;71.20
21502;DHT22;27639;48.674;9.242;2023-07-29T04:57:52;21.50;71.50
21502;DHT22;27639;48.674;9.242;2023-07-29T05:00:18;21.50;71.50
21502;DHT22;27639;48.674;9.242;2023-07-29T05:02:44;21.50;71.60
21502;DHT22;27639;48.674;9.242;2023-07-29T05:05:09;21.50;71.50
21502;DHT22;27639;48.674;9.242;2023-07-29T05:07:35;21.50;71.60
21502;DHT22;27639;48.674;9.242;2023-07-29T05:10:00;21.60;71.60
21502;DHT22;27639;48.674;9.242;2023-07-29T05:12:26;21.50;71.50
21502;DHT22;27639;48.674;9.242;2023-07-29T05:14:51;21.60;71.70
21502;DHT22;27639;48.674;9.242;2023-07-29T05:17:17;21.60;71.70
21502;DHT22;27639;48.674;9.242;2023-07-29T05:19:42;21.60;72.50
21502;DHT22;27639;48.674;9.242;2023-07-29T05:22:08;21.60;71.80
21502;DHT22;27639;48.674;9.242;2023-07-29T05:24:35;21.60;71.80
21502;DHT22;27639;48.674;9.242;2023-07-29T05:27:01;21.70;71.80
21502;DHT22;27639;48.674;9.242;2023-07-29T05:29:26;21.60;71.70
21502;DHT22;27639;48.674;9.242;2023-07-29T05:31:52;21.50;71.80
21502;DHT22;27639;48.674;9.242;2023-07-29T05:34:17;21.50;71.90
21502;DHT22;27639;48.674;9.242;2023-07-29T05:36:43;21.50;72.00
21502;DHT22;27639;48.674;9.242;2023-07-29T05:39:08;21.50;71.90
21502;DHT22;27639;48.674;9.242;2023-07-29T05:41:34;21.60;72.00
21502;DHT22;27639;48.674;9.242;2023-07-29T05:43:59;21.60;72.00
21502;DHT22;27639;48.674;9.242;2023-07-29T05:46:25;21.60;72.00
21502;DHT22;27639;48.674;9.242;2023-07-29T05:48:50;21.60;72.00
21502;DHT22;27639;48.674;9.242;2023-07-29T05:51:16;21.70;72.10
21502;DHT22;27639;48.674;9.242;2023-07-29T05:53:41;21.70;72.10
21502;DHT22;27639;48.674;9.242;2023-07-29T05:56:07;21.80;72.20
21502;DHT22;27639;48.674;9.242;2023-07-29T05:58:33;21.90;72.40
21502;DHT22;27639;48.674;9.242;2023-07-29T06:00:58;21.90;72.40
21502;DHT22;27639;48.674;9.242;2023-07-29T06:03:24;21.90;72.50
21502;DHT22;27639;48.674;9.242;2023-07-29T06:05:49;21.90;72.60
21502;DHT22;27639;48.674;9.242;2023-07-29T06:08:15;22.00;72.70
21502;DHT22;27639;48.674;9.242;2023-07-29T06:10:41;22.00;72.80
21502;DHT22;27639;48.674;9.242;2023-07-29T06:13:06;22.10;73.10
21502;DHT22;27639;48.674;9.242;2023-07-29T06:15:32;22.00;73.40
21502;DHT22;27639;48.674;9.242;2023-07-29T06:17:57;22.00;74.00
21502;DHT22;27639;48.674;9.242;2023-07-29T06:20:23;22.10;75.30
21502;DHT22;27639;48.674;9.242;2023-07-29T06:22:49;22.30;75.40
21502;DHT22;27639;48.674;9.242;2023-07-29T06:25:14;22.40;74.90
21502;DHT22;27639;48.674;9.242;2023-07-29T06:27:40;22.60;74.00
21502;DHT22;27639;48.674;9.242;2023-07-29T06:30:06;22.70;73.30
21502;DHT22;27639;48.674;9.242;2023-07-29T06:32:32;22.80;72.60
21502;DHT22;27639;48.674;9.242;2023-07-29T06:34:57;22.90;72.40
21502;DHT22;27639;48.674;9.242;2023-07-29T06:37:23;22.90;72.10
21502;DHT22;27639;48.674;9.242;2023-07-29T06:39:48;23.00;71.70
21502;DHT22;27639;48.674;9.242;2023-07-29T06:42:14;23.00;71.40
21502;DHT22;27639;48.674;9.242;2023-07-29T06:44:40;23.10;71.30
21502;DHT22;27639;48.674;9.242;2023-07-29T06:47:06;23.10;70.90
21502;DHT22;27639;48.674;9.242;2023-07-29T06:49:31;23.10;70.70
21502;DHT22;27639;48.674;9.242;2023-07-29T06:51:57;23.10;70.60
21502;DHT22;27639;48.674;9.242;2023-07-29T06:54:25;23.10;70.50
21502;DHT22;27639;48.674;9.242;2023-07-29T06:56:52;23.10;70.60
21502;DHT22;27639;48.674;9.242;2023-07-29T06:59:17;23.00;70.60
21502;DHT22;27639;48.674;9.242;2023-07-29T07:01:43;22.70;71.20
21502;DHT22;27639;48.674;9.242;2023-07-29T07:04:09;22.70;71.40
21502;DHT22;27639;48.674;9.242;2023-07-29T07:06:34;22.60;72.50
21502;DHT22;27639;48.674;9.242;2023-07-29T07:09:00;22.50;72.00
21502;DHT22;27639;48.674;9.242;2023-07-29T07:11:26;22.40;72.30
21502;DHT22;27639;48.674;9.242;2023-07-29T07:13:51;22.30;72.60
21502;DHT22;27639;48.674;9.242;2023-07-29T07:16:17;22.20;73.40
21502;DHT22;27639;48.674;9.242;2023-07-29T07:18:43;22.00;72.50
21502;DHT22;27639;48.674;9.242;2023-07-29T07:21:08;22.00;72.60
21502;DHT22;27639;48.674;9.242;2023-07-29T07:23:34;21.90;72.50
21502;DHT22;27639;48.674;9.242;2023-07-29T07:25:59;21.90;72.40
21502;DHT22;27639;48.674;9.242;2023-07-29T07:28:25;21.90;72.40
21502;DHT22;27639;48.674;9.242;2023-07-29T07:30:51;21.90;72.50
21502;DHT22;27639;48.674;9.242;2023-07-29T07:33:16;21.90;72.50
21502;DHT22;27639;48.674;9.242;2023-07-29T07:35:42;21.90;72.50
21502;DHT22;27639;48.674;9.242;2023-07-29T07:38:08;21.90;72.50
21502;DHT22;27639;48.674;9.242;2023-07-29T07:40:35;21.90;72.60
21502;DHT22;27639;48.674;9.242;2023-07-29T07:43:01;21.90;72.50
21502;DHT22;27639;48.674;9.242;2023-07-29T07:45:27;22.00;72.70
21502;DHT22;27639;48.674;9.242;2023-07-29T07:47:52;22.00;72.70
21502;DHT22;27639;48.674;9.242;2023-07-29T07:50:19;22.00;72.90
21502;DHT22;27639;48.674;9.242;2023-07-29T07:52:44;22.10;73.00
21502;DHT22;27639;48.674;9.242;2023-07-29T07:55:10;22.10;73.10
21502;DHT22;27639;48.674;9.242;2023-07-29T07:57:36;22.10;73.10
21502;DHT22;27639;48.674;9.242;2023-07-29T08:00:01;22.10;73.20
21502;DHT22;27639;48.674;9.242;2023-07-29T08:02:27;22.10;73.30
21502;DHT22;27639;48.674;9.242;2023-07-29T08:04:52;22.20;73.40
21502;DHT22;27639;48.674;9.242;2023-07-29T08:07:18;22.20;73.30
21502;DHT22;27639;48.674;9.242;2023-07-29T08:09:44;22.20;73.50
21502;DHT22;27639;48.674;9.242;2023-07-29T08:12:09;22.30;73.80
21502;DHT22;27639;48.674;9.242;2023-07-29T08:14:35;22.30;74.00
21502;DHT22;27639;48.674;9.242;2023-07-29T08:17:00;22.40;74.10
21502;DHT22;27639;48.674;9.242;2023-07-29T08:19:27;22.50;74.30
21502;DHT22;27639;48.674;9.242;2023-07-29T08:21:52;22.40;74.20
21502;DHT22;27639;48.674;9.242;2023-07-29T08:24:18;22.50;74.40
21502;DHT22;27639;48.674;9.242;2023-07-29T08:26:44;22.40;74.40
21502;DHT22;27639;48.674;9.242;2023-07-29T08:29:09;22.50;74.50
21502;DHT22;27639;48.674;9.242;2023-07-29T08:31:35;22.60;74.60
21502;DHT22;27639;48.674;9.242;2023-07-29T08:34:00;22.70;74.90
21502;DHT22;27639;48.674;9.242;2023-07-29T08:36:26;22.80;74.90
21502;DHT22;27639;48.674;9.242;2023-07-29T08:38:52;22.80;74.90
21502;DHT22;27639;48.674;9.242;2023-07-29T08:41:41;22.90;74.40
21502;DHT22;27639;48.674;9.242;2023-07-29T08:44:23;23.00;73.90
21502;DHT22;27639;48.674;9.242;2023-07-29T08:46:51;23.00;74.60
21502;DHT22;27639;48.674;9.242;2023-07-29T08:49:19;23.10;74.70
21502;DHT22;27639;48.674;9.242;2023-07-29T08:51:46;23.20;74.70
21502;DHT22;27639;48.674;9.242;2023-07-29T08:54:13;23.20;74.60
21502;DHT22;27639;48.674;9.242;2023-07-29T08:56:41;23.30;74.50
21502;DHT22;27639;48.674;9.242;2023-07-29T08:59:07;23.40;74.60
21502;DHT22;27639;48.674;9.242;2023-07-29T09:01:33;23.60;74.60
21502;DHT22;27639;48.674;9.242;2023-07-29T09:03:59;23.70;75.30
21502;DHT22;27639;48.674;9.242;2023-07-29T09:06:26;23.90;75.40
21502;DHT22;27639;48.674;9.242;2023-07-29T09:08:54;24.00;74.90
21502;DHT22;27639;48.674;9.242;2023-07-29T09:11:21;24.20;74.30
21502;DHT22;27639;48.674;9.242;2023-07-29T09:13:47;24.30;73.40
21502;DHT22;27639;48.674;9.242;2023-07-29T09:16:13;24.40;72.40
21502;DHT22;27639;48.674;9.242;2023-07-29T09:18:39;24.50;72.40
21502;DHT22;27639;48.674;9.242;2023-07-29T09:21:05;24.50;72.10
21502;DHT22;27639;48.674;9.242;2023-07-29T09:23:44;24.60;71.60
21502;DHT22;27639;48.674;9.242;2023-07-29T09:26:10;24.60;71.00
21502;DHT22;27639;48.674;9.242;2023-07-29T09:28:38;24.60;70.90
21502;DHT22;27639;48.674;9.242;2023-07-29T09:31:04;24.70;71.10
21502;DHT22;27639;48.674;9.242;2023-07-29T09:33:33;24.90;70.60
21502;DHT22;27639;48.674;9.242;2023-07-29T09:36:11;25.00;69.60
21502;DHT22;27639;48.674;9.242;2023-07-29T09:38:37;25.00;69.10
21502;DHT22;27639;48.674;9.242;2023-07-29T09:41:02;25.00;69.10
21502;DHT22;27639;48.674;9.242;2023-07-29T09:43:33;25.10;69.60
21502;DHT22;27639;48.674;9.242;2023-07-29T09:46:03;25.20;69.30
21502;DHT22;27639;48.674;9.242;2023-07-29T09:48:33;25.30;69.40
21502;DHT22;27639;48.674;9.242;2023-07-29T09:50:58;25.30;69.10
21502;DHT22;27639;48.674;9.242;2023-07-29T09:53:24;25.40;69.20
21502;DHT22;27639;48.674;9.242;2023-07-29T09:55:50;25.40;69.70
21502;DHT22;27639;48.674;9.242;2023-07-29T09:58:27;25.70;69.10
21502;DHT22;27639;48.674;9.242;2023-07-29T10:00:53;25.60;68.00
21502;DHT22;27639;48.674;9.242;2023-07-29T10:03:20;25.60;67.80
21502;DHT22;27639;48.674;9.242;2023-07-29T10:05:46;25.60;67.80
21502;DHT22;27639;48.674;9.242;2023-07-29T10:08:13;25.80;68.00
21502;DHT22;27639;48.674;9.242;2023-07-29T10:10:41;25.90;67.70
21502;DHT22;27639;48.674;9.242;2023-07-29T10:13:07;26.00;67.10
21502;DHT22;27639;48.674;9.242;2023-07-29T10:15:34;26.00;66.70
21502;DHT22;27639;48.674;9.242;2023-07-29T10:18:01;26.10;66.10
21502;DHT22;27639;48.674;9.242;2023-07-29T10:20:28;26.20;65.40
21502;DHT22;27639;48.674;9.242;2023-07-29T10:22:56;26.20;64.70
21502;DHT22;27639;48.674;9.242;2023-07-29T10:25:24;26.20;64.20
21502;DHT22;27639;48.674;9.242;2023-07-29T10:28:04;26.20;63.90
21502;DHT22;27639;48.674;9.242;2023-07-29T10:30:30;26.20;63.90
21502;DHT22;27639;48.674;9.242;2023-07-29T10:32:58;26.30;64.20
21502;DHT22;27639;48.674;9.242;2023-07-29T10:35:24;26.50;64.90
21502;DHT22;27639;48.674;9.242;2023-07-29T10:37:51;26.60;63.80
21502;DHT22;27639;48.674;9.242;2023-07-29T10:40:18;26.70;63.90
21502;DHT22;27639;48.674;9.242;2023-07-29T10:43:11;26.70;63.20
21502;DHT22;27639;48.674;9.242;2023-07-29T10:45:39;26.90;62.70
21502;DHT22;27639;48.674;9.242;2023-07-29T10:48:12;27.00;63.00
21502;DHT22;27639;48.674;9.242;2023-07-29T10:50:38;27.10;62.70
21502;DHT22;27639;48.674;9.242;2023-07-29T10:53:04;27.10;61.80
21502;DHT22;27639;48.674;9.242;2023-07-29T10:55:35;27.30;59.50
21502;DHT22;27639;48.674;9.242;2023-07-29T10:58:14;27.30;59.40
21502;DHT22;27639;48.674;9.242;2023-07-29T11:00:44;27.30;58.70
21502;DHT22;27639;48.674;9.242;2023-07-29T11:03:11;27.50;58.80
21502;DHT22;27639;48.674;9.242;2023-07-29T11:05:51;27.60;58.20
21502;DHT22;27639;48.674;9.242;2023-07-29T11:08:36;27.70;57.20
21502;DHT22;27639;48.674;9.242;2023-07-29T11:11:04;27.80;57.50
21502;DHT22;27639;48.674;9.242;2023-07-29T11:13:31;27.80;56.60
21502;DHT22;27639;48.674;9.242;2023-07-29T11:15:58;27.80;56.60
21502;DHT22;27639;48.674;9.242;2023-07-29T11:18:34;27.80;55.60
21502;DHT22;27639;48.674;9.242;2023-07-29T11:21:02;27.80;54.90
21502;DHT22;27639;48.674;9.242;2023-07-29T11:23:33;27.70;54.50
21502;DHT22;27639;48.674;9.242;2023-07-29T11:25:59;27.70;55.10
21502;DHT22;27639;48.674;9.242;2023-07-29T11:28:26;27.60;54.70
21502;DHT22;27639;48.674;9.242;2023-07-29T11:30:53;27.70;54.80
21502;DHT22;27639;48.674;9.242;2023-07-29T11:33:26;27.70;54.50
21502;DHT22;27639;48.674;9.242;2023-07-29T11:35:53;27.70;54.20
21502;DHT22;27639;48.674;9.242;2023-07-29T11:38:20;27.70;54.30
21502;DHT22;27639;48.674;9.242;2023-07-29T11:40:57;27.60;53.90
21502;DHT22;27639;48.674;9.242;2023-07-29T11:43:23;27.60;53.70
21502;DHT22;27639;48.674;9.242;2023-07-29T11:45:49;27.60;54.10
21502;DHT22;27639;48.674;9.242;2023-07-29T11:48:14;27.60;54.20
21502;DHT22;27639;48.674;9.242;2023-07-29T11:50:40;27.50;53.90
21502;DHT22;27639;48.674;9.242;2023-07-29T11:53:06;27.50;53.50
21502;DHT22;27639;48.674;9.242;2023-07-29T11:55:33;27.60;53.60
21502;DHT22;27639;48.674;9.242;2023-07-29T11:57:59;27.60;53.10
21502;DHT22;27639;48.674;9.242;2023-07-29T12:00:26;27.60;53.40
21502;DHT22;27639;48.674;9.242;2023-07-29T12:02:52;27.60;52.90
21502;DHT22;27639;48.674;9.242;2023-07-29T12:05:18;27.60;52.60
21502;DHT22;27639;48.674;9.242;2023-07-29T12:07:46;27.60;52.70
21502;DHT22;27639;48.674;9.242;2023-07-29T12:10:12;27.60;52.50
21502;DHT22;27639;48.674;9.242;2023-07-29T12:12:49;27.60;52.90
21502;DHT22;27639;48.674;9.242;2023-07-29T12:15:28;27.60;52.50
21502;DHT22;27639;48.674;9.242;2023-07-29T12:17:55;27.70;52.90
21502;DHT22;27639;48.674;9.242;2023-07-29T12:20:22;27.70;52.90
21502;DHT22;27639;48.674;9.242;2023-07-29T12:22:55;27.80;52.80
21502;DHT22;27639;48.674;9.242;2023-07-29T12:25:21;27.90;52.80
21502;DHT22;27639;48.674;9.242;2023-07-29T12:27:47;27.90;52.60
21502;DHT22;27639;48.674;9.242;2023-07-29T12:30:13;27.90;52.10
21502;DHT22;27639;48.674;9.242;2023-07-29T12:32:46;27.90;51.30
21502;DHT22;27639;48.674;9.242;2023-07-29T12:35:12;28.00;50.80
21502;DHT22;27639;48.674;9.242;2023-07-29T12:37:38;28.00;51.20
21502;DHT22;27639;48.674;9.242;2023-07-29T12:40:08;28.10;51.40
21502;DHT22;27639;48.674;9.242;2023-07-29T12:42:33;28.20;50.80
21502;DHT22;27639;48.674;9.242;2023-07-29T12:44:59;28.20;50.00
21502;DHT22;27639;48.674;9.242;2023-07-29T12:47:24;28.30;49.40
21502;DHT22;27639;48.674;9.242;2023-07-29T12:49:50;28.30;49.50
21502;DHT22;27639;48.674;9.242;2023-07-29T12:52:16;28.30;49.20
21502;DHT22;27639;48.674;9.242;2023-07-29T12:54:41;28.40;49.10
21502;DHT22;27639;48.674;9.242;2023-07-29T12:57:09;28.30;48.70
21502;DHT22;27639;48.674;9.242;2023-07-29T12:59:35;28.30;49.00
21502;DHT22;27639;48.674;9.242;2023-07-29T13:02:00;28.30;49.00
21502;DHT22;27639;48.674;9.242;2023-07-29T13:04:26;28.30;49.30
21502;DHT22;27639;48.674;9.242;2023-07-29T13:06:51;28.20;49.40
21502;DHT22;27639;48.674;9.242;2023-07-29T13:09:17;28.20;49.40
21502;DHT22;27639;48.674;9.242;2023-07-29T13:11:42;28.20;49.00
21502;DHT22;27639;48.674;9.242;2023-07-29T13:14:08;28.10;49.10
21502;DHT22;27639;48.674;9.242;2023-07-29T13:16:34;28.10;49.10
21502;DHT22;27639;48.674;9.242;2023-07-29T13:18:59;28.20;49.50
21502;DHT22;27639;48.674;9.242;2023-07-29T13:21:25;28.20;48.80
21502;DHT22;27639;48.674;9.242;2023-07-29T13:23:51;28.20;49.10
21502;DHT22;27639;48.674;9.242;2023-07-29T13:26:17;28.30;49.00
21502;DHT22;27639;48.674;9.242;2023-07-29T13:28:42;28.30;48.70
21502;DHT22;27639;48.674;9.242;2023-07-29T13:31:08;28.30;48.30
21502;DHT22;27639;48.674;9.242;2023-07-29T13:33:33;28.20;48.20
21502;DHT22;27639;48.674;9.242;2023-07-29T13:36:00;28.20;48.00
21502;DHT22;27639;48.674;9.242;2023-07-29T13:38:27;28.20;47.80
21502;DHT22;27639;48.674;9.242;2023-07-29T13:40:53;28.10;48.10
21502;DHT22;27639;48.674;9.242;2023-07-29T13:43:18;28.10;48.20
21502;DHT22;27639;48.674;9.242;2023-07-29T13:45:44;28.10;48.40
21502;DHT22;27639;48.674;9.242;2023-07-29T13:48:10;28.10;48.50
21502;DHT22;27639;48.674;9.242;2023-07-29T13:50:35;28.10;48.70
21502;DHT22;27639;48.674;9.242;2023-07-29T13:53:01;28.10;48.80
21502;DHT22;27639;48.674;9.242;2023-07-29T13:55:26;28.20;48.70
21502;DHT22;27639;48.674;9.242;2023-07-29T13:57:52;28.20;48.80
21502;DHT22;27639;48.674;9.242;2023-07-29T14:00:19;28.20;48.80
21502;DHT22;27639;48.674;9.242;2023-07-29T14:02:44;28.20;48.70
21502;DHT22;27639;48.674;9.242;2023-07-29T14:05:10;28.20;48.60
21502;DHT22;27639;48.674;9.242;2023-07-29T14:07:37;28.20;48.70
21502;DHT22;27639;48.674;9.242;2023-07-29T14:10:02;28.30;48.80
21502;DHT22;27639;48.674;9.242;2023-07-29T14:12:28;28.20;48.00
21502;DHT22;27639;48.674;9.242;2023-07-29T14:14:54;28.20;48.20
21502;DHT22;27639;48.674;9.242;2023-07-29T14:17:19;28.10;47.80
21502;DHT22;27639;48.674;9.242;2023-07-29T14:19:45;28.20;48.00
21502;DHT22;27639;48.674;9.242;2023-07-29T14:22:10;28.20;47.50
21502;DHT22;27639;48.674;9.242;2023-07-29T14:24:36;28.00;46.80
21502;DHT22;27639;48.674;9.242;2023-07-29T14:27:02;27.90;46.90
21502;DHT22;27639;48.674;9.242;2023-07-29T14:29:28;27.90;46.70
21502;DHT22;27639;48.674;9.242;2023-07-29T14:31:54;27.80;46.50
21502;DHT22;27639;48.674;9.242;2023-07-29T14:34:19;27.70;46.50
21502;DHT22;27639;48.674;9.242;2023-07-29T14:36:45;27.70;46.80
21502;DHT22;27639;48.674;9.242;2023-07-29T14:39:10;27.70;46.80
21502;DHT22;27639;48.674;9.242;2023-07-29T14:41:36;27.80;47.00
21502;DHT22;27639;48.674;9.242;2023-07-29T14:44:02;27.80;47.40
21502;DHT22;27639;48.674;9.242;2023-07-29T14:46:28;27.90;47.50
21502;DHT22;27639;48.674;9.242;2023-07-29T14:48:53;28.10;47.60
21502;DHT22;27639;48.674;9.242;2023-07-29T14:51:19;28.10;48.00
21502;DHT22;27639;48.674;9.242;2023-07-29T14:53:44;28.00;47.10
21502;DHT22;27639;48.674;9.242;2023-07-29T14:56:10;27.90;46.90
21502;DHT22;27639;48.674;9.242;2023-07-29T14:58:36;27.90;47.00
21502;DHT22;27639;48.674;9.242;2023-07-29T15:01:01;28.00;47.10
21502;DHT22;27639;48.674;9.242;2023-07-29T15:03:27;27.90;47.10
21502;DHT22;27639;48.674;9.242;2023-07-29T15:05:52;27.90;47.30
21502;DHT22;27639;48.674;9.242;2023-07-29T15:08:18;27.90;47.00
21502;DHT22;27639;48.674;9.242;2023-07-29T15:10:47;27.80;47.30
21502;DHT22;27639;48.674;9.242;2023-07-29T15:13:13;27.80;47.20
21502;DHT22;27639;48.674;9.242;2023-07-29T15:15:43;27.80;46.90
21502;DHT22;27639;48.674;9.242;2023-07-29T15:18:09;27.80;47.20
21502;DHT22;27639;48.674;9.242;2023-07-29T15:20:34;27.80;47.30
21502;DHT22;27639;48.674;9.242;2023-07-29T15:23:00;27.80;47.40
21502;DHT22;27639;48.674;9.242;2023-07-29T15:25:25;27.80;47.70
21502;DHT22;27639;48.674;9.242;2023-07-29T15:27:51;27.90;47.70
21502;DHT22;27639;48.674;9.242;2023-07-29T15:30:17;27.90;47.70